WetterOnline ( https://www.wetteronline.de )

Wetter aktuell Bad Rappenau

Aktuelles Wetter: Waibstadt (237m)

6-stündlich | Neueste Meldungen
Ortszeit Temperatur Wetter
Mo, 21.10. 2:00 13.4° C leicht bewölkt
So, 20.10. 20:00 15.1° C bedeckt
So, 20.10. 14:00 17.6° C bedeckt
So, 20.10. 8:00 11.9° C bedeckt
So, 20.10. 2:00 12.6° C leichter Regen
Sa, 19.10. 20:00 13.5° C leichter Regen
Sa, 19.10. 14:00 14.6° C wolkig
Sa, 19.10. 8:00 11.7° C leichter Regen
Ortszeit Temperatur Wetter
Mo, 21.10. 2:30 13.2° C leicht bewölkt
Mo, 21.10. 2:20 13.2° C leicht bewölkt
Mo, 21.10. 2:10 13.4° C leicht bewölkt
Mo, 21.10. 2:00 13.4° C leicht bewölkt
Mo, 21.10. 1:40 13.6° C wolkenlos
Mo, 21.10. 1:30 14.4° C leicht bewölkt
Mo, 21.10. 1:00 14.0° C leicht bewölkt
Mo, 21.10. 0:30 14.7° C leichter Regen
Mo, 21.10. 0:00 14.2° C bewölkt
So, 20.10. 23:30 14.2° C bewölkt
Ortszeit Relative Feuchte Sichtweite
Mo, 21.10. 2:00 97% 5.0 km
So, 20.10. 20:00 94% 13 km
So, 20.10. 14:00 75% 35 km
So, 20.10. 8:00 98% 2.5 km
So, 20.10. 2:00 96% 23 km
Sa, 19.10. 20:00 91% 22 km
Sa, 19.10. 14:00 80% 55 km
Sa, 19.10. 8:00 94% 27 km
Ortszeit Relative Feuchte Sichtweite
Mo, 21.10. 2:30 97% 6 km
Mo, 21.10. 2:20 97% -
Mo, 21.10. 2:10 97% -
Mo, 21.10. 2:00 97% 5.0 km
Mo, 21.10. 1:40 96% -
Mo, 21.10. 1:30 94% 17 km
Mo, 21.10. 1:00 94% 16 km
Mo, 21.10. 0:30 91% 29 km
Mo, 21.10. 0:00 92% 23 km
So, 20.10. 23:30 91% 16 km
Ortszeit Niederschlagsmenge Niederschlagsart
Mo, 21.10. 2:00 0.1 l/m2 in 6 Std. Regen
So, 20.10. 20:00 0.1 l/m2 in 12 Std. -
So, 20.10. 14:00 0.1 l/m2 in 6 Std. Regen
So, 20.10. 8:00 11 l/m2 in 12 Std. Regen
So, 20.10. 2:00 7 l/m2 in 6 Std. Regen
Sa, 19.10. 20:00 2 l/m2 in 12 Std. Regen
Sa, 19.10. 14:00 1 l/m2 in 6 Std. Regen
Sa, 19.10. 8:00 2 l/m2 in 12 Std. Regen
Ortszeit Niederschlagsmenge Niederschlagsart
Mo, 21.10. 2:30 0.0 l/m2 in 1 Std. -
Mo, 21.10. 2:20 keine Meldung -
Mo, 21.10. 2:10 keine Meldung -
Mo, 21.10. 2:00 0.0 l/m2 in 1 Std. Regen
Mo, 21.10. 1:40 keine Meldung -
Mo, 21.10. 1:30 0.0 l/m2 in 1 Std. -
Mo, 21.10. 1:00 0.1 l/m2 in 1 Std. Regen
Mo, 21.10. 0:30 0.1 l/m2 in 1 Std. -
Mo, 21.10. 0:00 0.0 l/m2 in 1 Std. -
So, 20.10. 23:30 0.0 l/m2 in 1 Std. -
Ortszeit Stärke Spitze Richtung
km/h Bft. km/h Grad Sektor
Mo, 21.10. 2:00 7 2 31 90° O
So, 20.10. 20:00 6 1 17 90° O
So, 20.10. 14:00 7 2 25 80° O
So, 20.10. 8:00 7 2 18 100° O
So, 20.10. 2:00 9 2 30 140° SO
Sa, 19.10. 20:00 20 4 31 190° S
Sa, 19.10. 14:00 11 2 25 180° S
Sa, 19.10. 8:00 11 2 26 180° S
Ortszeit Stärke Spitze Richtung
km/h Bft. km/h Grad Sektor
Mo, 21.10. 2:30 9 2 11 120° SO
Mo, 21.10. 2:20 9 2 - 120° SO
Mo, 21.10. 2:10 6 1 - 120° SO
Mo, 21.10. 2:00 7 2 24 90° O
Mo, 21.10. 1:40 7 2 - 80° O
Mo, 21.10. 1:30 7 2 25 300° NW
Mo, 21.10. 1:00 7 2 32 330° NW
Mo, 21.10. 0:30 11 2 32 300° NW
Mo, 21.10. 0:00 9 2 24 340° N
So, 20.10. 23:30 7 2 25 30° NO
Ortszeit Untergrenze Bedeckung Gattung
total tief tief mittel hoch
Mo, 21.10. 2:00 5100 m 3/8 3/8 - - -
So, 20.10. 20:00 4200 m 8/8 8/8 - - -
So, 20.10. 14:00 3600 m 8/8 8/8 - - -
So, 20.10. 8:00 3300 m 8/8 8/8 - - -
So, 20.10. 2:00 1500 m 7/8 7/8 - - -
Sa, 19.10. 20:00 2400 m 8/8 8/8 - - -
Sa, 19.10. 14:00 2400 m 8/8 3/8 - - -
Sa, 19.10. 8:00 1800 m 7/8 7/8 - - -
Ortszeit Bedeckungsgrad in Achtel und Wolkenuntergrenze
Mo, 21.10. 2:30 1(5400m) 3(8700m)
Mo, 21.10. 2:20 1(5400m) 3(8700m) 4(9000m)
Mo, 21.10. 2:10 1(5100m) 6(8700m) 6(9000m)
Mo, 21.10. 2:00 2(5100m) 3(5700m) 6(9000m)
Mo, 21.10. 1:40 keine Wolken
Mo, 21.10. 1:30 2(450m) 3(3300m)
Mo, 21.10. 1:00 2(3300m) 3(3900m)
Mo, 21.10. 0:30 1(2100m) 4(2700m) 8(3300m)
Mo, 21.10. 0:00 5(3000m) 7(3600m) 8(8400m)
So, 20.10. 23:30 4(3900m) 8(8100m) 8(8400m)
Ortszeit Luftdruck NN (hPa) Tendenz (hPa in 3 Std.)
Mo, 21.10. 2:00 1012 + 2,0
So, 20.10. 20:00 1009 + 1,5
So, 20.10. 14:00 1007 - 1,2
So, 20.10. 8:00 1009 + 0,8
So, 20.10. 2:00 1010 - 0,4
Sa, 19.10. 20:00 1009 + 0,6
Sa, 19.10. 14:00 1010 - 0,7
Sa, 19.10. 8:00 1010 - 1,1
Ortszeit Luftdruck NN (hPa) Tendenz (hPa in 3 Std.)
Mo, 21.10. 2:30 1012 + 1,7
Mo, 21.10. 2:20 1012 keine Meldung
Mo, 21.10. 2:10 1012 keine Meldung
Mo, 21.10. 2:00 1012 + 2,0
Mo, 21.10. 1:40 1012 keine Meldung
Mo, 21.10. 1:30 1012 + 3,3
Mo, 21.10. 1:00 1013 + 3,2
Mo, 21.10. 0:30 1013 + 3,7
Mo, 21.10. 0:00 1011 + 2,4
So, 20.10. 23:30 1010 + 1,0
Ortszeit Schneehöhe (cm)
Mo, 21.10. 2:00 0
So, 20.10. 20:00 0
So, 20.10. 14:00 0
So, 20.10. 8:00 0
So, 20.10. 2:00 0
Sa, 19.10. 20:00 0
Sa, 19.10. 14:00 0
Sa, 19.10. 8:00 0
Ortszeit Schneehöhe (cm)
Mo, 21.10. 2:30 0
Mo, 21.10. 2:20 0
Mo, 21.10. 2:10 0
Mo, 21.10. 2:00 0
Mo, 21.10. 1:40 0
Mo, 21.10. 1:30 0
Mo, 21.10. 1:00 0
Mo, 21.10. 0:30 0
Mo, 21.10. 0:00 0
So, 20.10. 23:30 0
Link zu dieser Seite / Seite empfehlen

Das Wetter in ...